sensor_id;sensor_type;location;lat;lon;timestamp;P1;durP1;ratioP1;P2;durP2;ratioP2
58864;SDS011;45702;52.982;6.658;2022-10-23T00:03:43;50.45;;;21.05;;
58864;SDS011;45702;52.982;6.658;2022-10-23T00:06:09;47.47;;;20.65;;
58864;SDS011;45702;52.982;6.658;2022-10-23T00:08:36;55.60;;;20.85;;
58864;SDS011;45702;52.982;6.658;2022-10-23T00:11:12;50.40;;;20.42;;
58864;SDS011;45702;52.982;6.658;2022-10-23T00:13:38;52.92;;;22.10;;
58864;SDS011;45702;52.982;6.658;2022-10-23T00:16:05;54.13;;;22.80;;
58864;SDS011;45702;52.982;6.658;2022-10-23T00:18:31;61.13;;;23.98;;
58864;SDS011;45702;52.982;6.658;2022-10-23T00:20:57;67.00;;;24.25;;
58864;SDS011;45702;52.982;6.658;2022-10-23T00:23:23;66.32;;;26.38;;
58864;SDS011;45702;52.982;6.658;2022-10-23T00:25:49;69.50;;;27.08;;
58864;SDS011;45702;52.982;6.658;2022-10-23T00:28:15;80.45;;;27.95;;
58864;SDS011;45702;52.982;6.658;2022-10-23T00:30:41;68.13;;;26.52;;
58864;SDS011;45702;52.982;6.658;2022-10-23T00:33:07;73.95;;;26.00;;
58864;SDS011;45702;52.982;6.658;2022-10-23T00:35:34;74.05;;;26.77;;
58864;SDS011;45702;52.982;6.658;2022-10-23T00:38:03;60.38;;;24.73;;
58864;SDS011;45702;52.982;6.658;2022-10-23T00:40:29;58.72;;;23.83;;
58864;SDS011;45702;52.982;6.658;2022-10-23T00:42:55;60.63;;;24.63;;
58864;SDS011;45702;52.982;6.658;2022-10-23T00:47:47;66.68;;;25.50;;
58864;SDS011;45702;52.982;6.658;2022-10-23T00:50:14;67.28;;;25.52;;
58864;SDS011;45702;52.982;6.658;2022-10-23T00:52:52;72.53;;;26.60;;
58864;SDS011;45702;52.982;6.658;2022-10-23T00:55:19;53.70;;;23.70;;
58864;SDS011;45702;52.982;6.658;2022-10-23T00:57:46;61.38;;;25.30;;
58864;SDS011;45702;52.982;6.658;2022-10-23T01:00:15;63.13;;;24.42;;
58864;SDS011;45702;52.982;6.658;2022-10-23T01:02:41;55.40;;;24.63;;
58864;SDS011;45702;52.982;6.658;2022-10-23T01:05:07;61.35;;;25.55;;
58864;SDS011;45702;52.982;6.658;2022-10-23T01:07:40;63.33;;;25.15;;
58864;SDS011;45702;52.982;6.658;2022-10-23T01:10:15;69.28;;;25.60;;
58864;SDS011;45702;52.982;6.658;2022-10-23T01:12:48;56.63;;;23.77;;
58864;SDS011;45702;52.982;6.658;2022-10-23T01:17:45;62.53;;;25.05;;
58864;SDS011;45702;52.982;6.658;2022-10-23T01:20:18;55.95;;;23.92;;
58864;SDS011;45702;52.982;6.658;2022-10-23T01:28:03;55.72;;;23.15;;
58864;SDS011;45702;52.982;6.658;2022-10-23T01:30:31;57.85;;;22.98;;
58864;SDS011;45702;52.982;6.658;2022-10-23T01:33:12;52.97;;;23.65;;
58864;SDS011;45702;52.982;6.658;2022-10-23T01:35:41;46.10;;;20.52;;
58864;SDS011;45702;52.982;6.658;2022-10-23T01:38:10;54.08;;;21.90;;
58864;SDS011;45702;52.982;6.658;2022-10-23T01:43:11;47.08;;;21.13;;
58864;SDS011;45702;52.982;6.658;2022-10-23T01:48:04;52.22;;;21.02;;
58864;SDS011;45702;52.982;6.658;2022-10-23T01:50:31;48.50;;;21.73;;
58864;SDS011;45702;52.982;6.658;2022-10-23T01:52:58;46.53;;;20.80;;
58864;SDS011;45702;52.982;6.658;2022-10-23T01:55:24;47.83;;;22.35;;
58864;SDS011;45702;52.982;6.658;2022-10-23T01:57:50;51.78;;;21.73;;
58864;SDS011;45702;52.982;6.658;2022-10-23T02:00:18;56.55;;;21.88;;
58864;SDS011;45702;52.982;6.658;2022-10-23T02:02:44;47.17;;;21.50;;
58864;SDS011;45702;52.982;6.658;2022-10-23T02:05:13;39.83;;;20.63;;
58864;SDS011;45702;52.982;6.658;2022-10-23T02:07:41;53.08;;;22.75;;
58864;SDS011;45702;52.982;6.658;2022-10-23T02:10:07;50.95;;;22.20;;
58864;SDS011;45702;52.982;6.658;2022-10-23T02:12:38;44.08;;;21.92;;
58864;SDS011;45702;52.982;6.658;2022-10-23T02:15:08;57.60;;;22.73;;
58864;SDS011;45702;52.982;6.658;2022-10-23T02:20:43;56.20;;;22.00;;
58864;SDS011;45702;52.982;6.658;2022-10-23T02:23:18;54.33;;;24.60;;
58864;SDS011;45702;52.982;6.658;2022-10-23T02:28:12;58.63;;;23.02;;
58864;SDS011;45702;52.982;6.658;2022-10-23T02:33:06;59.65;;;24.83;;
58864;SDS011;45702;52.982;6.658;2022-10-23T02:35:32;66.78;;;23.73;;
58864;SDS011;45702;52.982;6.658;2022-10-23T02:37:59;49.30;;;22.88;;
58864;SDS011;45702;52.982;6.658;2022-10-23T02:40:29;49.05;;;22.83;;
58864;SDS011;45702;52.982;6.658;2022-10-23T02:42:57;64.68;;;26.67;;
58864;SDS011;45702;52.982;6.658;2022-10-23T02:48:16;60.35;;;26.73;;
58864;SDS011;45702;52.982;6.658;2022-10-23T02:51:03;62.20;;;24.85;;
58864;SDS011;45702;52.982;6.658;2022-10-23T02:56:11;65.18;;;26.40;;
58864;SDS011;45702;52.982;6.658;2022-10-23T02:58:44;53.85;;;25.80;;
58864;SDS011;45702;52.982;6.658;2022-10-23T03:01:15;68.70;;;28.00;;
58864;SDS011;45702;52.982;6.658;2022-10-23T03:03:52;69.82;;;26.77;;
58864;SDS011;45702;52.982;6.658;2022-10-23T03:06:18;65.20;;;26.27;;
58864;SDS011;45702;52.982;6.658;2022-10-23T03:08:52;57.15;;;25.83;;
58864;SDS011;45702;52.982;6.658;2022-10-23T03:11:18;58.35;;;26.85;;
58864;SDS011;45702;52.982;6.658;2022-10-23T03:13:44;55.45;;;25.00;;
58864;SDS011;45702;52.982;6.658;2022-10-23T03:16:10;53.13;;;26.55;;
58864;SDS011;45702;52.982;6.658;2022-10-23T03:18:36;63.70;;;28.40;;
58864;SDS011;45702;52.982;6.658;2022-10-23T03:21:02;62.83;;;27.13;;
58864;SDS011;45702;52.982;6.658;2022-10-23T03:23:28;64.60;;;27.98;;
58864;SDS011;45702;52.982;6.658;2022-10-23T03:25:55;55.70;;;25.38;;
58864;SDS011;45702;52.982;6.658;2022-10-23T03:28:21;57.00;;;26.13;;
58864;SDS011;45702;52.982;6.658;2022-10-23T03:30:47;57.60;;;26.58;;
58864;SDS011;45702;52.982;6.658;2022-10-23T03:33:13;55.97;;;27.70;;
58864;SDS011;45702;52.982;6.658;2022-10-23T03:35:39;62.90;;;26.88;;
58864;SDS011;45702;52.982;6.658;2022-10-23T03:38:05;76.47;;;28.50;;
58864;SDS011;45702;52.982;6.658;2022-10-23T03:40:31;55.60;;;25.45;;
58864;SDS011;45702;52.982;6.658;2022-10-23T03:42:57;55.10;;;26.33;;
58864;SDS011;45702;52.982;6.658;2022-10-23T03:45:23;63.42;;;27.65;;
58864;SDS011;45702;52.982;6.658;2022-10-23T03:47:49;60.53;;;26.70;;
58864;SDS011;45702;52.982;6.658;2022-10-23T03:50:16;67.22;;;27.25;;
58864;SDS011;45702;52.982;6.658;2022-10-23T03:52:42;66.65;;;30.67;;
58864;SDS011;45702;52.982;6.658;2022-10-23T03:55:08;74.57;;;32.22;;
58864;SDS011;45702;52.982;6.658;2022-10-23T03:57:34;60.42;;;28.98;;
58864;SDS011;45702;52.982;6.658;2022-10-23T04:00:00;69.65;;;30.20;;
58864;SDS011;45702;52.982;6.658;2022-10-23T04:02:27;73.30;;;30.85;;
58864;SDS011;45702;52.982;6.658;2022-10-23T04:04:53;73.38;;;31.63;;
58864;SDS011;45702;52.982;6.658;2022-10-23T04:07:19;73.88;;;30.45;;
58864;SDS011;45702;52.982;6.658;2022-10-23T04:09:45;60.45;;;29.10;;
58864;SDS011;45702;52.982;6.658;2022-10-23T04:12:11;59.10;;;27.90;;
58864;SDS011;45702;52.982;6.658;2022-10-23T04:14:37;75.47;;;29.58;;
58864;SDS011;45702;52.982;6.658;2022-10-23T04:17:03;54.75;;;26.85;;
58864;SDS011;45702;52.982;6.658;2022-10-23T04:19:29;54.40;;;26.83;;
58864;SDS011;45702;52.982;6.658;2022-10-23T04:21:55;79.35;;;30.15;;
58864;SDS011;45702;52.982;6.658;2022-10-23T04:24:22;58.92;;;27.77;;
58864;SDS011;45702;52.982;6.658;2022-10-23T04:26:48;85.90;;;33.72;;
58864;SDS011;45702;52.982;6.658;2022-10-23T04:29:14;75.18;;;32.13;;
58864;SDS011;45702;52.982;6.658;2022-10-23T04:31:40;79.00;;;31.80;;
58864;SDS011;45702;52.982;6.658;2022-10-23T04:34:06;86.15;;;32.78;;
58864;SDS011;45702;52.982;6.658;2022-10-23T04:36:32;89.07;;;33.95;;
58864;SDS011;45702;52.982;6.658;2022-10-23T04:38:59;83.10;;;34.42;;
58864;SDS011;45702;52.982;6.658;2022-10-23T04:41:25;86.75;;;33.28;;
58864;SDS011;45702;52.982;6.658;2022-10-23T04:43:51;80.35;;;32.15;;
58864;SDS011;45702;52.982;6.658;2022-10-23T04:46:17;92.78;;;34.63;;
58864;SDS011;45702;52.982;6.658;2022-10-23T04:48:43;88.50;;;32.40;;
58864;SDS011;45702;52.982;6.658;2022-10-23T04:51:09;90.00;;;33.78;;
58864;SDS011;45702;52.982;6.658;2022-10-23T04:53:35;78.90;;;33.13;;
58864;SDS011;45702;52.982;6.658;2022-10-23T04:56:03;72.07;;;31.58;;
58864;SDS011;45702;52.982;6.658;2022-10-23T04:58:29;82.22;;;32.45;;
58864;SDS011;45702;52.982;6.658;2022-10-23T05:00:55;73.45;;;30.52;;
58864;SDS011;45702;52.982;6.658;2022-10-23T05:03:22;72.65;;;29.58;;
58864;SDS011;45702;52.982;6.658;2022-10-23T05:05:48;70.45;;;30.90;;
58864;SDS011;45702;52.982;6.658;2022-10-23T05:08:16;77.57;;;31.98;;
58864;SDS011;45702;52.982;6.658;2022-10-23T05:10:42;71.90;;;30.85;;
58864;SDS011;45702;52.982;6.658;2022-10-23T05:13:08;67.00;;;29.52;;
58864;SDS011;45702;52.982;6.658;2022-10-23T05:15:34;65.22;;;28.33;;
58864;SDS011;45702;52.982;6.658;2022-10-23T05:18:07;62.83;;;28.08;;
58864;SDS011;45702;52.982;6.658;2022-10-23T05:20:35;64.55;;;29.20;;
58864;SDS011;45702;52.982;6.658;2022-10-23T05:23:02;90.47;;;30.33;;
58864;SDS011;45702;52.982;6.658;2022-10-23T05:25:31;74.50;;;29.65;;
58864;SDS011;45702;52.982;6.658;2022-10-23T05:27:57;56.80;;;27.40;;
58864;SDS011;45702;52.982;6.658;2022-10-23T05:30:23;74.15;;;30.30;;
58864;SDS011;45702;52.982;6.658;2022-10-23T05:32:49;69.78;;;28.48;;
58864;SDS011;45702;52.982;6.658;2022-10-23T05:35:16;61.15;;;26.83;;
58864;SDS011;45702;52.982;6.658;2022-10-23T05:37:44;76.25;;;29.23;;
58864;SDS011;45702;52.982;6.658;2022-10-23T05:40:11;63.80;;;27.40;;
58864;SDS011;45702;52.982;6.658;2022-10-23T05:42:37;82.88;;;30.65;;
58864;SDS011;45702;52.982;6.658;2022-10-23T05:45:03;67.63;;;28.92;;
58864;SDS011;45702;52.982;6.658;2022-10-23T05:47:30;62.65;;;29.33;;
58864;SDS011;45702;52.982;6.658;2022-10-23T05:49:56;67.32;;;29.77;;
58864;SDS011;45702;52.982;6.658;2022-10-23T05:52:22;66.45;;;29.15;;
58864;SDS011;45702;52.982;6.658;2022-10-23T05:54:51;71.30;;;30.08;;
58864;SDS011;45702;52.982;6.658;2022-10-23T05:59:43;70.38;;;31.10;;
58864;SDS011;45702;52.982;6.658;2022-10-23T06:02:09;78.68;;;31.42;;
58864;SDS011;45702;52.982;6.658;2022-10-23T06:04:35;75.03;;;31.63;;
58864;SDS011;45702;52.982;6.658;2022-10-23T06:07:02;77.70;;;32.03;;
58864;SDS011;45702;52.982;6.658;2022-10-23T06:09:28;81.45;;;31.85;;
58864;SDS011;45702;52.982;6.658;2022-10-23T06:11:54;71.40;;;29.80;;
58864;SDS011;45702;52.982;6.658;2022-10-23T06:14:20;67.38;;;28.52;;
58864;SDS011;45702;52.982;6.658;2022-10-23T06:16:46;76.63;;;30.83;;
58864;SDS011;45702;52.982;6.658;2022-10-23T06:19:13;67.15;;;29.17;;
58864;SDS011;45702;52.982;6.658;2022-10-23T06:21:39;75.07;;;30.83;;
58864;SDS011;45702;52.982;6.658;2022-10-23T06:24:06;68.63;;;29.65;;
58864;SDS011;45702;52.982;6.658;2022-10-23T06:26:32;72.57;;;30.67;;
58864;SDS011;45702;52.982;6.658;2022-10-23T06:28:59;78.38;;;30.98;;
58864;SDS011;45702;52.982;6.658;2022-10-23T06:31:25;64.10;;;29.55;;
58864;SDS011;45702;52.982;6.658;2022-10-23T06:33:55;68.93;;;29.95;;
58864;SDS011;45702;52.982;6.658;2022-10-23T06:36:22;64.63;;;30.40;;
58864;SDS011;45702;52.982;6.658;2022-10-23T06:38:48;71.40;;;31.38;;
58864;SDS011;45702;52.982;6.658;2022-10-23T06:41:16;71.28;;;30.15;;
58864;SDS011;45702;52.982;6.658;2022-10-23T06:43:42;65.70;;;28.50;;
58864;SDS011;45702;52.982;6.658;2022-10-23T06:46:08;68.57;;;29.83;;
58864;SDS011;45702;52.982;6.658;2022-10-23T06:48:34;69.82;;;29.55;;
58864;SDS011;45702;52.982;6.658;2022-10-23T06:51:05;64.65;;;28.42;;
58864;SDS011;45702;52.982;6.658;2022-10-23T06:53:31;64.95;;;29.10;;
58864;SDS011;45702;52.982;6.658;2022-10-23T06:55:57;70.75;;;29.77;;
58864;SDS011;45702;52.982;6.658;2022-10-23T06:58:24;71.88;;;29.75;;
58864;SDS011;45702;52.982;6.658;2022-10-23T07:00:50;72.35;;;31.05;;
58864;SDS011;45702;52.982;6.658;2022-10-23T07:03:16;66.55;;;29.95;;
58864;SDS011;45702;52.982;6.658;2022-10-23T07:05:42;71.00;;;30.65;;
58864;SDS011;45702;52.982;6.658;2022-10-23T07:08:14;67.18;;;29.98;;
58864;SDS011;45702;52.982;6.658;2022-10-23T07:10:40;69.00;;;29.60;;
58864;SDS011;45702;52.982;6.658;2022-10-23T07:13:07;67.85;;;29.48;;
58864;SDS011;45702;52.982;6.658;2022-10-23T07:15:33;73.00;;;30.30;;
58864;SDS011;45702;52.982;6.658;2022-10-23T07:17:59;63.10;;;27.25;;
58864;SDS011;45702;52.982;6.658;2022-10-23T07:20:26;66.72;;;28.60;;
58864;SDS011;45702;52.982;6.658;2022-10-23T07:22:52;64.75;;;28.77;;
58864;SDS011;45702;52.982;6.658;2022-10-23T07:25:23;66.53;;;27.90;;
58864;SDS011;45702;52.982;6.658;2022-10-23T07:27:49;69.75;;;29.45;;
58864;SDS011;45702;52.982;6.658;2022-10-23T07:30:15;67.10;;;29.23;;
58864;SDS011;45702;52.982;6.658;2022-10-23T07:32:42;60.33;;;26.80;;
58864;SDS011;45702;52.982;6.658;2022-10-23T07:35:08;68.97;;;28.92;;
58864;SDS011;45702;52.982;6.658;2022-10-23T07:37:35;73.00;;;28.02;;
58864;SDS011;45702;52.982;6.658;2022-10-23T07:40:01;57.25;;;26.95;;
58864;SDS011;45702;52.982;6.658;2022-10-23T07:42:27;66.47;;;26.63;;
58864;SDS011;45702;52.982;6.658;2022-10-23T07:44:53;59.00;;;25.48;;
58864;SDS011;45702;52.982;6.658;2022-10-23T07:47:23;59.92;;;26.20;;
58864;SDS011;45702;52.982;6.658;2022-10-23T07:49:49;65.57;;;26.60;;
58864;SDS011;45702;52.982;6.658;2022-10-23T07:52:15;69.68;;;25.63;;
58864;SDS011;45702;52.982;6.658;2022-10-23T07:54:41;62.00;;;25.73;;
58864;SDS011;45702;52.982;6.658;2022-10-23T07:57:08;56.10;;;25.55;;
58864;SDS011;45702;52.982;6.658;2022-10-23T08:02:02;59.65;;;23.88;;
58864;SDS011;45702;52.982;6.658;2022-10-23T08:04:28;60.53;;;24.20;;
58864;SDS011;45702;52.982;6.658;2022-10-23T08:06:54;57.83;;;24.75;;
58864;SDS011;45702;52.982;6.658;2022-10-23T08:09:20;61.95;;;25.75;;
58864;SDS011;45702;52.982;6.658;2022-10-23T08:12:26;60.78;;;24.00;;
58864;SDS011;45702;52.982;6.658;2022-10-23T08:15:05;53.50;;;24.40;;
58864;SDS011;45702;52.982;6.658;2022-10-23T08:17:35;52.03;;;24.27;;
58864;SDS011;45702;52.982;6.658;2022-10-23T08:20:13;57.85;;;24.90;;
58864;SDS011;45702;52.982;6.658;2022-10-23T08:22:39;48.15;;;23.58;;
58864;SDS011;45702;52.982;6.658;2022-10-23T08:25:06;56.88;;;24.85;;
58864;SDS011;45702;52.982;6.658;2022-10-23T08:27:47;49.95;;;22.83;;
58864;SDS011;45702;52.982;6.658;2022-10-23T08:30:17;49.85;;;24.05;;
58864;SDS011;45702;52.982;6.658;2022-10-23T08:32:46;47.13;;;23.38;;
58864;SDS011;45702;52.982;6.658;2022-10-23T08:35:12;47.30;;;23.48;;
58864;SDS011;45702;52.982;6.658;2022-10-23T08:37:39;47.75;;;23.35;;
58864;SDS011;45702;52.982;6.658;2022-10-23T08:40:05;48.70;;;22.80;;
58864;SDS011;45702;52.982;6.658;2022-10-23T08:42:32;46.90;;;22.13;;
58864;SDS011;45702;52.982;6.658;2022-10-23T08:45:06;50.40;;;22.77;;
58864;SDS011;45702;52.982;6.658;2022-10-23T08:47:40;52.58;;;22.65;;
58864;SDS011;45702;52.982;6.658;2022-10-23T08:50:24;41.20;;;21.02;;
58864;SDS011;45702;52.982;6.658;2022-10-23T08:55:29;46.40;;;20.95;;
58864;SDS011;45702;52.982;6.658;2022-10-23T09:00:27;38.03;;;19.33;;
58864;SDS011;45702;52.982;6.658;2022-10-23T09:02:53;42.03;;;19.50;;
58864;SDS011;45702;52.982;6.658;2022-10-23T09:13:19;38.88;;;18.38;;
58864;SDS011;45702;52.982;6.658;2022-10-23T09:15:47;39.50;;;18.55;;
58864;SDS011;45702;52.982;6.658;2022-10-23T09:18:15;41.08;;;18.88;;
58864;SDS011;45702;52.982;6.658;2022-10-23T09:20:43;37.22;;;18.55;;
58864;SDS011;45702;52.982;6.658;2022-10-23T09:23:20;34.42;;;16.90;;
58864;SDS011;45702;52.982;6.658;2022-10-23T09:25:46;35.80;;;17.48;;
58864;SDS011;45702;52.982;6.658;2022-10-23T09:28:17;42.50;;;17.95;;
58864;SDS011;45702;52.982;6.658;2022-10-23T09:30:45;30.13;;;15.70;;
58864;SDS011;45702;52.982;6.658;2022-10-23T09:33:25;33.75;;;16.42;;
58864;SDS011;45702;52.982;6.658;2022-10-23T09:41:30;32.50;;;14.25;;
58864;SDS011;45702;52.982;6.658;2022-10-23T09:46:38;25.75;;;13.88;;
58864;SDS011;45702;52.982;6.658;2022-10-23T09:49:04;28.13;;;14.23;;
58864;SDS011;45702;52.982;6.658;2022-10-23T09:51:31;25.02;;;12.70;;
58864;SDS011;45702;52.982;6.658;2022-10-23T09:53:58;29.88;;;13.63;;
58864;SDS011;45702;52.982;6.658;2022-10-23T09:56:26;27.90;;;14.00;;
58864;SDS011;45702;52.982;6.658;2022-10-23T09:58:56;28.00;;;13.20;;
58864;SDS011;45702;52.982;6.658;2022-10-23T10:01:24;27.48;;;13.13;;
58864;SDS011;45702;52.982;6.658;2022-10-23T10:03:51;30.58;;;13.38;;
58864;SDS011;45702;52.982;6.658;2022-10-23T10:06:36;29.27;;;12.20;;
58864;SDS011;45702;52.982;6.658;2022-10-23T10:09:04;25.05;;;11.38;;
58864;SDS011;45702;52.982;6.658;2022-10-23T10:11:34;19.77;;;11.25;;
58864;SDS011;45702;52.982;6.658;2022-10-23T10:16:50;26.13;;;11.48;;
58864;SDS011;45702;52.982;6.658;2022-10-23T10:19:21;28.08;;;10.80;;
58864;SDS011;45702;52.982;6.658;2022-10-23T10:24:19;23.05;;;10.57;;
58864;SDS011;45702;52.982;6.658;2022-10-23T10:32:05;25.35;;;10.80;;
58864;SDS011;45702;52.982;6.658;2022-10-23T10:34:50;22.58;;;10.02;;
58864;SDS011;45702;52.982;6.658;2022-10-23T10:37:28;18.38;;;9.32;;
58864;SDS011;45702;52.982;6.658;2022-10-23T10:39:59;19.70;;;9.50;;
58864;SDS011;45702;52.982;6.658;2022-10-23T10:47:32;20.35;;;9.00;;
58864;SDS011;45702;52.982;6.658;2022-10-23T10:53:02;17.88;;;8.55;;
58864;SDS011;45702;52.982;6.658;2022-10-23T10:55:23;22.88;;;9.60;;
58864;SDS011;45702;52.982;6.658;2022-10-23T10:57:56;18.48;;;9.23;;
58864;SDS011;45702;52.982;6.658;2022-10-23T11:00:23;19.85;;;8.23;;
58864;SDS011;45702;52.982;6.658;2022-10-23T11:03:01;23.05;;;8.60;;
58864;SDS011;45702;52.982;6.658;2022-10-23T11:07:57;24.13;;;12.27;;
58864;SDS011;45702;52.982;6.658;2022-10-23T11:10:24;40.75;;;19.73;;
58864;SDS011;45702;52.982;6.658;2022-10-23T11:12:51;22.63;;;12.27;;
58864;SDS011;45702;52.982;6.658;2022-10-23T11:15:23;21.13;;;9.70;;
58864;SDS011;45702;52.982;6.658;2022-10-23T11:17:52;16.77;;;8.27;;
58864;SDS011;45702;52.982;6.658;2022-10-23T11:20:25;19.17;;;7.80;;
58864;SDS011;45702;52.982;6.658;2022-10-23T11:23:05;14.40;;;7.53;;
58864;SDS011;45702;52.982;6.658;2022-10-23T11:25:52;20.30;;;8.25;;
58864;SDS011;45702;52.982;6.658;2022-10-23T11:31:07;18.50;;;7.32;;
58864;SDS011;45702;52.982;6.658;2022-10-23T11:39:22;23.67;;;8.40;;
58864;SDS011;45702;52.982;6.658;2022-10-23T11:41:56;18.38;;;9.18;;
58864;SDS011;45702;52.982;6.658;2022-10-23T11:44:27;19.70;;;9.63;;
58864;SDS011;45702;52.982;6.658;2022-10-23T11:49:48;27.35;;;10.43;;
58864;SDS011;45702;52.982;6.658;2022-10-23T11:52:21;22.35;;;11.18;;
58864;SDS011;45702;52.982;6.658;2022-10-23T11:54:47;20.42;;;9.65;;
58864;SDS011;45702;52.982;6.658;2022-10-23T11:57:14;22.70;;;11.55;;
58864;SDS011;45702;52.982;6.658;2022-10-23T12:04:49;18.05;;;9.95;;
58864;SDS011;45702;52.982;6.658;2022-10-23T12:10:22;22.90;;;10.15;;
58864;SDS011;45702;52.982;6.658;2022-10-23T12:12:55;28.65;;;11.30;;
58864;SDS011;45702;52.982;6.658;2022-10-23T12:15:22;24.35;;;12.00;;
58864;SDS011;45702;52.982;6.658;2022-10-23T12:17:49;26.40;;;14.00;;
58864;SDS011;45702;52.982;6.658;2022-10-23T12:22:49;21.52;;;10.73;;
58864;SDS011;45702;52.982;6.658;2022-10-23T12:30:46;20.77;;;10.82;;
58864;SDS011;45702;52.982;6.658;2022-10-23T12:33:19;21.40;;;10.77;;
58864;SDS011;45702;52.982;6.658;2022-10-23T12:38:19;18.08;;;9.88;;
58864;SDS011;45702;52.982;6.658;2022-10-23T12:40:51;19.92;;;11.57;;
58864;SDS011;45702;52.982;6.658;2022-10-23T12:43:25;17.42;;;9.13;;
58864;SDS011;45702;52.982;6.658;2022-10-23T12:45:51;21.40;;;9.27;;
58864;SDS011;45702;52.982;6.658;2022-10-23T12:48:21;17.42;;;8.63;;
58864;SDS011;45702;52.982;6.658;2022-10-23T12:50:51;18.00;;;10.13;;
58864;SDS011;45702;52.982;6.658;2022-10-23T12:53:18;24.55;;;12.02;;
58864;SDS011;45702;52.982;6.658;2022-10-23T12:58:27;35.03;;;20.02;;
58864;SDS011;45702;52.982;6.658;2022-10-23T13:00:57;40.25;;;23.17;;
58864;SDS011;45702;52.982;6.658;2022-10-23T13:03:24;30.27;;;15.88;;
58864;SDS011;45702;52.982;6.658;2022-10-23T13:05:51;28.35;;;14.65;;
58864;SDS011;45702;52.982;6.658;2022-10-23T13:08:19;19.05;;;10.75;;
58864;SDS011;45702;52.982;6.658;2022-10-23T13:10:48;17.27;;;11.38;;
58864;SDS011;45702;52.982;6.658;2022-10-23T13:13:17;17.35;;;10.30;;
58864;SDS011;45702;52.982;6.658;2022-10-23T13:15:44;25.70;;;14.20;;
58864;SDS011;45702;52.982;6.658;2022-10-23T13:18:11;23.65;;;11.75;;
58864;SDS011;45702;52.982;6.658;2022-10-23T13:26:02;25.70;;;13.38;;
58864;SDS011;45702;52.982;6.658;2022-10-23T13:28:33;28.45;;;12.98;;
58864;SDS011;45702;52.982;6.658;2022-10-23T13:33:39;31.77;;;14.73;;
58864;SDS011;45702;52.982;6.658;2022-10-23T13:38:38;34.17;;;14.45;;
58864;SDS011;45702;52.982;6.658;2022-10-23T13:41:05;22.50;;;10.82;;
58864;SDS011;45702;52.982;6.658;2022-10-23T13:43:35;18.02;;;10.10;;
58864;SDS011;45702;52.982;6.658;2022-10-23T13:46:02;17.40;;;8.88;;
58864;SDS011;45702;52.982;6.658;2022-10-23T13:48:28;14.68;;;7.50;;
58864;SDS011;45702;52.982;6.658;2022-10-23T13:51:00;18.77;;;7.65;;
58864;SDS011;45702;52.982;6.658;2022-10-23T13:53:31;22.85;;;8.38;;
58864;SDS011;45702;52.982;6.658;2022-10-23T13:55:58;15.90;;;9.20;;
58864;SDS011;45702;52.982;6.658;2022-10-23T13:58:26;19.15;;;9.75;;
58864;SDS011;45702;52.982;6.658;2022-10-23T14:00:56;23.65;;;12.63;;
58864;SDS011;45702;52.982;6.658;2022-10-23T14:03:22;13.15;;;6.32;;
58864;SDS011;45702;52.982;6.658;2022-10-23T14:05:51;15.35;;;6.97;;
58864;SDS011;45702;52.982;6.658;2022-10-23T14:08:18;18.65;;;7.50;;
58864;SDS011;45702;52.982;6.658;2022-10-23T14:10:44;22.08;;;9.40;;
58864;SDS011;45702;52.982;6.658;2022-10-23T14:13:10;17.58;;;8.32;;
58864;SDS011;45702;52.982;6.658;2022-10-23T14:15:36;17.08;;;6.70;;
58864;SDS011;45702;52.982;6.658;2022-10-23T14:18:02;12.40;;;6.60;;
58864;SDS011;45702;52.982;6.658;2022-10-23T14:20:28;14.23;;;7.97;;
58864;SDS011;45702;52.982;6.658;2022-10-23T14:22:54;12.25;;;6.28;;
58864;SDS011;45702;52.982;6.658;2022-10-23T14:25:20;12.35;;;6.65;;
58864;SDS011;45702;52.982;6.658;2022-10-23T14:27:47;12.63;;;6.15;;
58864;SDS011;45702;52.982;6.658;2022-10-23T14:30:13;18.10;;;6.85;;
58864;SDS011;45702;52.982;6.658;2022-10-23T14:32:39;19.67;;;6.82;;
58864;SDS011;45702;52.982;6.658;2022-10-23T14:35:05;14.68;;;6.28;;
58864;SDS011;45702;52.982;6.658;2022-10-23T14:37:32;15.90;;;6.25;;
58864;SDS011;45702;52.982;6.658;2022-10-23T14:39:58;13.40;;;6.63;;
58864;SDS011;45702;52.982;6.658;2022-10-23T14:42:25;18.83;;;6.70;;
58864;SDS011;45702;52.982;6.658;2022-10-23T14:44:57;15.98;;;5.65;;
58864;SDS011;45702;52.982;6.658;2022-10-23T14:47:24;13.63;;;6.60;;
58864;SDS011;45702;52.982;6.658;2022-10-23T14:49:50;13.93;;;5.68;;
58864;SDS011;45702;52.982;6.658;2022-10-23T14:52:17;16.90;;;6.85;;
58864;SDS011;45702;52.982;6.658;2022-10-23T14:54:43;12.05;;;5.38;;
58864;SDS011;45702;52.982;6.658;2022-10-23T14:57:09;14.85;;;5.65;;
58864;SDS011;45702;52.982;6.658;2022-10-23T14:59:40;30.80;;;10.45;;
58864;SDS011;45702;52.982;6.658;2022-10-23T15:02:07;16.10;;;6.90;;
58864;SDS011;45702;52.982;6.658;2022-10-23T15:04:34;12.32;;;5.60;;
58864;SDS011;45702;52.982;6.658;2022-10-23T15:07:00;14.38;;;5.45;;
58864;SDS011;45702;52.982;6.658;2022-10-23T15:09:26;13.30;;;5.53;;
58864;SDS011;45702;52.982;6.658;2022-10-23T15:11:52;13.52;;;5.15;;
58864;SDS011;45702;52.982;6.658;2022-10-23T15:14:18;15.73;;;6.13;;
58864;SDS011;45702;52.982;6.658;2022-10-23T15:16:44;13.05;;;5.22;;
58864;SDS011;45702;52.982;6.658;2022-10-23T15:19:12;12.70;;;5.28;;
58864;SDS011;45702;52.982;6.658;2022-10-23T15:21:39;10.38;;;5.15;;
58864;SDS011;45702;52.982;6.658;2022-10-23T15:24:05;14.02;;;5.13;;
58864;SDS011;45702;52.982;6.658;2022-10-23T15:26:32;13.40;;;5.13;;
58864;SDS011;45702;52.982;6.658;2022-10-23T15:28:59;13.63;;;5.20;;
58864;SDS011;45702;52.982;6.658;2022-10-23T15:33:57;13.10;;;5.18;;
58864;SDS011;45702;52.982;6.658;2022-10-23T15:36:24;18.33;;;5.80;;
58864;SDS011;45702;52.982;6.658;2022-10-23T15:38:50;14.75;;;5.25;;
58864;SDS011;45702;52.982;6.658;2022-10-23T15:41:18;9.75;;;4.78;;
58864;SDS011;45702;52.982;6.658;2022-10-23T15:43:46;11.20;;;5.20;;
58864;SDS011;45702;52.982;6.658;2022-10-23T15:46:12;14.38;;;5.55;;
58864;SDS011;45702;52.982;6.658;2022-10-23T15:48:38;12.38;;;5.63;;
58864;SDS011;45702;52.982;6.658;2022-10-23T15:51:04;19.50;;;5.88;;
58864;SDS011;45702;52.982;6.658;2022-10-23T15:53:31;12.82;;;5.30;;
58864;SDS011;45702;52.982;6.658;2022-10-23T15:55:57;12.45;;;4.88;;
58864;SDS011;45702;52.982;6.658;2022-10-23T15:58:24;16.85;;;6.65;;
58864;SDS011;45702;52.982;6.658;2022-10-23T16:00:50;12.50;;;4.80;;
58864;SDS011;45702;52.982;6.658;2022-10-23T16:03:17;12.80;;;5.05;;
58864;SDS011;45702;52.982;6.658;2022-10-23T16:05:43;10.35;;;4.88;;
58864;SDS011;45702;52.982;6.658;2022-10-23T16:08:09;10.75;;;5.18;;
58864;SDS011;45702;52.982;6.658;2022-10-23T16:10:38;11.45;;;5.13;;
58864;SDS011;45702;52.982;6.658;2022-10-23T16:13:05;17.13;;;5.03;;
58864;SDS011;45702;52.982;6.658;2022-10-23T16:15:34;12.40;;;5.57;;
58864;SDS011;45702;52.982;6.658;2022-10-23T16:18:00;12.32;;;5.05;;
58864;SDS011;45702;52.982;6.658;2022-10-23T16:20:26;9.95;;;5.13;;
58864;SDS011;45702;52.982;6.658;2022-10-23T16:22:52;17.10;;;5.63;;
58864;SDS011;45702;52.982;6.658;2022-10-23T16:25:19;15.45;;;5.30;;
58864;SDS011;45702;52.982;6.658;2022-10-23T16:27:45;13.00;;;5.50;;
58864;SDS011;45702;52.982;6.658;2022-10-23T16:30:11;12.25;;;5.68;;
58864;SDS011;45702;52.982;6.658;2022-10-23T16:32:41;14.63;;;6.25;;
58864;SDS011;45702;52.982;6.658;2022-10-23T16:35:08;11.10;;;5.10;;